createdAt,value
2017-05-31T00:00:03.151Z,26.69
2017-05-31T00:00:43.880Z,26.7
2017-05-31T00:01:24.670Z,26.67
2017-05-31T00:02:05.419Z,26.72
2017-05-31T00:02:46.118Z,26.73
2017-05-31T00:03:27.627Z,26.7
2017-05-31T00:04:08.706Z,26.72
2017-05-31T00:04:49.489Z,26.7
2017-05-31T00:05:30.263Z,26.69
2017-05-31T00:06:11.035Z,26.69
2017-05-31T00:06:51.869Z,26.67
2017-05-31T00:07:32.657Z,26.65
2017-05-31T00:08:13.450Z,26.73
2017-05-31T00:08:54.308Z,26.69
2017-05-31T00:09:35.088Z,26.69
2017-05-31T00:10:16.110Z,26.73
2017-05-31T00:10:57.153Z,26.67
2017-05-31T00:11:37.926Z,26.72
2017-05-31T00:12:18.680Z,26.7
2017-05-31T00:12:59.470Z,26.66
2017-05-31T00:13:40.750Z,26.69
2017-05-31T00:14:21.675Z,26.69
2017-05-31T00:15:02.444Z,26.75
2017-05-31T00:15:43.272Z,26.63
2017-05-31T00:16:24.304Z,26.67
2017-05-31T00:17:05.462Z,26.62
2017-05-31T00:17:46.286Z,26.72
2017-05-31T00:18:27.672Z,26.66
2017-05-31T00:19:08.389Z,26.66
2017-05-31T00:19:49.177Z,26.6
2017-05-31T00:20:29.915Z,26.62
2017-05-31T00:21:10.703Z,26.58
2017-05-31T00:21:51.475Z,26.65
2017-05-31T00:22:32.331Z,26.63
2017-05-31T00:23:13.137Z,26.62
2017-05-31T00:23:53.898Z,26.62
2017-05-31T00:24:34.691Z,26.55
2017-05-31T00:25:15.458Z,26.6
2017-05-31T00:25:56.253Z,26.67
2017-05-31T00:26:37.075Z,26.67
2017-05-31T00:27:17.821Z,26.6
2017-05-31T00:27:58.577Z,26.63
2017-05-31T00:28:39.349Z,26.62
2017-05-31T00:29:20.211Z,26.66
2017-05-31T00:30:01.005Z,26.63
2017-05-31T00:30:41.765Z,26.58
2017-05-31T00:31:22.521Z,26.63
2017-05-31T00:32:03.322Z,26.58
2017-05-31T00:32:44.137Z,26.58
2017-05-31T00:33:24.905Z,26.66
2017-05-31T00:34:05.753Z,26.6
2017-05-31T00:34:46.518Z,26.58
2017-05-31T00:35:27.325Z,26.62
2017-05-31T00:36:08.084Z,26.65
2017-05-31T00:36:48.854Z,26.6
2017-05-31T00:37:29.637Z,26.57
2017-05-31T00:38:10.435Z,26.63
2017-05-31T00:38:51.133Z,26.69
2017-05-31T00:39:31.889Z,26.62
2017-05-31T00:40:12.679Z,26.6
2017-05-31T00:40:53.455Z,26.67
2017-05-31T00:41:34.227Z,26.57
2017-05-31T00:42:14.952Z,26.62
2017-05-31T00:42:55.688Z,26.63
2017-05-31T00:43:36.535Z,26.57
2017-05-31T00:44:17.362Z,26.62
2017-05-31T00:44:58.130Z,26.57
2017-05-31T00:45:38.890Z,26.62
2017-05-31T00:46:19.691Z,26.63
2017-05-31T00:47:00.468Z,26.62
2017-05-31T00:47:41.232Z,26.57
2017-05-31T00:48:21.965Z,26.58
2017-05-31T00:49:02.765Z,26.58
2017-05-31T00:49:43.528Z,26.6
2017-05-31T00:50:24.347Z,26.52
2017-05-31T00:51:05.151Z,26.54
2017-05-31T00:51:45.934Z,26.58
2017-05-31T00:52:26.716Z,26.52
2017-05-31T00:53:07.506Z,26.58
2017-05-31T00:53:48.286Z,26.51
2017-05-31T00:54:29.054Z,26.62
2017-05-31T00:55:09.882Z,26.52
2017-05-31T00:55:50.597Z,26.55
2017-05-31T00:56:31.407Z,26.54
2017-05-31T00:57:12.161Z,26.51
2017-05-31T00:57:52.993Z,26.54
2017-05-31T00:58:33.794Z,26.51
2017-05-31T00:59:14.505Z,26.6
2017-05-31T00:59:55.287Z,26.54
2017-05-31T01:00:35.981Z,26.54
2017-05-31T01:01:16.700Z,26.57
2017-05-31T01:01:57.495Z,26.54
2017-05-31T01:02:38.245Z,26.54
2017-05-31T01:03:19.071Z,26.6
2017-05-31T01:03:59.838Z,26.51
2017-05-31T01:04:40.683Z,26.54
2017-05-31T01:05:21.548Z,26.55
2017-05-31T01:06:02.399Z,26.6
2017-05-31T01:06:43.201Z,26.55
2017-05-31T01:07:23.994Z,26.52
2017-05-31T01:08:04.802Z,26.48
2017-05-31T01:08:45.542Z,26.5
2017-05-31T01:09:26.395Z,26.48
2017-05-31T01:10:07.102Z,26.55
2017-05-31T01:10:47.922Z,26.48
2017-05-31T01:11:28.658Z,26.52
2017-05-31T01:12:09.422Z,26.52
2017-05-31T01:12:50.208Z,26.48
2017-05-31T01:13:30.909Z,26.48
2017-05-31T01:14:11.748Z,26.47
2017-05-31T01:14:52.508Z,26.47
2017-05-31T01:15:33.295Z,26.48
2017-05-31T01:16:14.055Z,26.52
2017-05-31T01:16:54.869Z,26.54
2017-05-31T01:17:35.661Z,26.47
2017-05-31T01:18:16.397Z,26.51
2017-05-31T01:18:57.194Z,26.51
2017-05-31T01:19:37.906Z,26.5
2017-05-31T01:20:18.669Z,26.55
2017-05-31T01:20:59.454Z,26.5
2017-05-31T01:21:40.236Z,26.47
2017-05-31T01:22:21.040Z,26.5
2017-05-31T01:23:01.777Z,26.45
2017-05-31T01:23:42.592Z,26.44
2017-05-31T01:24:23.395Z,26.45
2017-05-31T01:25:04.175Z,26.4
2017-05-31T01:25:45.041Z,26.45
2017-05-31T01:26:25.762Z,26.48
2017-05-31T01:27:06.515Z,26.5
2017-05-31T01:27:47.321Z,26.52
2017-05-31T01:28:28.100Z,26.43
2017-05-31T01:29:08.849Z,26.51
2017-05-31T01:29:49.587Z,26.44
2017-05-31T01:30:30.405Z,26.47
2017-05-31T01:31:11.285Z,26.43
2017-05-31T01:31:52.065Z,26.37
2017-05-31T01:32:32.842Z,26.5
2017-05-31T01:33:13.673Z,26.5
2017-05-31T01:33:54.482Z,26.52
2017-05-31T01:34:35.248Z,26.55
2017-05-31T01:35:15.962Z,26.5
2017-05-31T01:35:56.768Z,26.44
2017-05-31T01:36:37.544Z,26.44
2017-05-31T01:37:18.332Z,26.45
2017-05-31T01:37:59.099Z,26.32
2017-05-31T01:38:39.915Z,26.44
2017-05-31T01:39:20.690Z,26.4
2017-05-31T01:40:01.483Z,26.48
2017-05-31T01:40:42.247Z,26.47
2017-05-31T01:41:23.006Z,26.4
2017-05-31T01:42:03.790Z,26.44
2017-05-31T01:42:44.621Z,26.54
2017-05-31T01:43:25.445Z,26.37
2017-05-31T01:44:06.202Z,26.48
2017-05-31T01:44:47.059Z,26.4
2017-05-31T01:45:27.777Z,26.32
2017-05-31T01:46:08.559Z,26.39
2017-05-31T01:46:49.341Z,26.44
2017-05-31T01:47:30.157Z,26.37
2017-05-31T01:48:10.990Z,26.32
2017-05-31T01:48:51.777Z,26.4
2017-05-31T01:49:32.576Z,26.37
2017-05-31T01:50:13.366Z,26.39
2017-05-31T01:50:54.154Z,26.36
2017-05-31T01:51:34.938Z,26.37
2017-05-31T01:52:15.659Z,26.37
2017-05-31T01:52:56.433Z,26.4
2017-05-31T01:53:37.221Z,26.37
2017-05-31T01:54:18.009Z,26.45
2017-05-31T01:54:58.779Z,26.44
2017-05-31T01:55:39.564Z,26.39
2017-05-31T01:56:20.352Z,26.4
2017-05-31T01:57:01.091Z,26.37
2017-05-31T01:57:41.867Z,26.43
2017-05-31T01:58:22.621Z,26.43
2017-05-31T01:59:03.438Z,26.43
2017-05-31T01:59:44.274Z,26.39
2017-05-31T02:00:25.015Z,26.37
2017-05-31T02:01:05.763Z,26.35
2017-05-31T02:01:46.600Z,26.44
2017-05-31T02:02:27.274Z,26.4
2017-05-31T02:03:08.062Z,26.39
2017-05-31T02:03:48.849Z,26.36
2017-05-31T02:04:29.660Z,26.4
2017-05-31T02:05:10.469Z,26.44
2017-05-31T02:05:51.317Z,26.39
2017-05-31T02:06:32.080Z,26.33
2017-05-31T02:07:12.845Z,26.33
2017-05-31T02:07:53.593Z,26.37
2017-05-31T02:08:34.367Z,26.4
2017-05-31T02:09:15.195Z,26.44
2017-05-31T02:09:56.076Z,26.43
2017-05-31T02:10:36.856Z,26.35
2017-05-31T02:11:17.594Z,26.43
2017-05-31T02:11:58.391Z,26.44
2017-05-31T02:12:39.131Z,26.37
2017-05-31T02:13:19.850Z,26.36
2017-05-31T02:14:00.619Z,26.39
2017-05-31T02:14:41.473Z,26.35
2017-05-31T02:15:22.281Z,26.43
2017-05-31T02:16:03.045Z,26.32
2017-05-31T02:16:43.821Z,26.33
2017-05-31T02:17:24.587Z,26.32
2017-05-31T02:18:05.321Z,26.43
2017-05-31T02:18:46.121Z,26.44
2017-05-31T02:19:26.902Z,26.39
2017-05-31T02:20:07.652Z,26.39
2017-05-31T02:20:48.414Z,26.32
2017-05-31T02:21:29.265Z,26.36
2017-05-31T02:22:09.994Z,26.32
2017-05-31T02:22:50.756Z,26.4
2017-05-31T02:23:31.512Z,26.36
2017-05-31T02:24:12.326Z,26.33
2017-05-31T02:24:53.112Z,26.36
2017-05-31T02:25:33.861Z,26.35
2017-05-31T02:26:14.668Z,26.36
2017-05-31T02:26:55.428Z,26.33
2017-05-31T02:27:36.217Z,26.35
2017-05-31T02:28:17.016Z,26.35
2017-05-31T02:28:57.791Z,26.3
2017-05-31T02:29:38.603Z,26.35
2017-05-31T02:30:19.390Z,26.32
2017-05-31T02:31:00.213Z,26.4
2017-05-31T02:31:40.986Z,26.39
2017-05-31T02:32:21.740Z,26.37
2017-05-31T02:33:02.536Z,26.32
2017-05-31T02:33:43.378Z,26.32
2017-05-31T02:34:24.152Z,26.35
2017-05-31T02:35:04.947Z,26.35
2017-05-31T02:35:45.636Z,26.37
2017-05-31T02:36:26.435Z,26.35
2017-05-31T02:37:07.225Z,26.3
2017-05-31T02:37:48.011Z,26.33
2017-05-31T02:38:28.802Z,26.33
2017-05-31T02:39:09.501Z,26.32
2017-05-31T02:39:50.325Z,26.33
2017-05-31T02:40:31.176Z,26.28
2017-05-31T02:41:12.013Z,26.29
2017-05-31T02:41:52.747Z,26.33
2017-05-31T02:42:33.533Z,26.33
2017-05-31T02:43:14.349Z,26.35
2017-05-31T02:43:55.163Z,26.29
2017-05-31T02:44:35.934Z,26.32
2017-05-31T02:45:17.322Z,26.28
2017-05-31T02:45:58.136Z,26.28
2017-05-31T02:46:38.923Z,26.32
2017-05-31T02:47:19.671Z,26.29
2017-05-31T02:48:00.538Z,26.33
2017-05-31T02:48:41.304Z,26.33
2017-05-31T02:49:22.216Z,26.3
2017-05-31T02:50:03.012Z,26.36
2017-05-31T02:50:43.789Z,26.33
2017-05-31T02:51:24.537Z,26.29
2017-05-31T02:52:05.276Z,26.26
2017-05-31T02:52:46.159Z,26.32
2017-05-31T02:53:26.950Z,26.3
2017-05-31T02:54:07.704Z,26.33
2017-05-31T02:54:48.506Z,26.32
2017-05-31T02:55:29.288Z,26.33
2017-05-31T02:56:10.026Z,26.35
2017-05-31T02:56:50.844Z,26.3
2017-05-31T02:57:31.642Z,26.35
2017-05-31T02:58:12.392Z,26.33
2017-05-31T02:58:53.192Z,26.35
2017-05-31T02:59:33.935Z,26.26
2017-05-31T03:00:14.671Z,26.33
2017-05-31T03:00:55.466Z,26.29
2017-05-31T03:01:36.233Z,26.3
2017-05-31T03:02:17.020Z,26.3
2017-05-31T03:02:57.860Z,26.26
2017-05-31T03:03:38.624Z,26.3
2017-05-31T03:04:19.431Z,26.29
2017-05-31T03:05:00.225Z,26.32
2017-05-31T03:05:41.058Z,26.33
2017-05-31T03:06:21.824Z,26.35
2017-05-31T03:07:02.631Z,26.26
2017-05-31T03:07:43.446Z,26.3
2017-05-31T03:08:24.200Z,26.32
2017-05-31T03:09:05.043Z,26.26
2017-05-31T03:09:45.795Z,26.32
2017-05-31T03:10:26.502Z,26.25
2017-05-31T03:11:07.322Z,26.32
2017-05-31T03:11:48.011Z,26.28
2017-05-31T03:12:28.878Z,26.26
2017-05-31T03:13:09.657Z,26.26
2017-05-31T03:13:50.393Z,26.29
2017-05-31T03:14:31.193Z,26.3
2017-05-31T03:15:14.690Z,26.3
2017-05-31T03:15:55.441Z,26.35
2017-05-31T03:16:36.263Z,26.28
2017-05-31T03:17:17.014Z,26.17
2017-05-31T03:17:57.837Z,26.21
2017-05-31T03:18:38.661Z,26.28
2017-05-31T03:19:19.422Z,26.29
2017-05-31T03:20:00.189Z,26.23
2017-05-31T03:20:40.961Z,26.28
2017-05-31T03:21:21.732Z,26.29
2017-05-31T03:22:02.503Z,26.28
2017-05-31T03:22:43.251Z,26.23
2017-05-31T03:23:24.043Z,26.29
2017-05-31T03:24:04.820Z,26.3
2017-05-31T03:24:45.556Z,26.3
2017-05-31T03:25:26.349Z,26.21
2017-05-31T03:26:07.146Z,26.26
2017-05-31T03:26:47.892Z,26.23
2017-05-31T03:27:28.661Z,26.18
2017-05-31T03:28:09.420Z,26.18
2017-05-31T03:28:50.176Z,26.28
2017-05-31T03:29:30.955Z,26.25
2017-05-31T03:30:11.777Z,26.26
2017-05-31T03:30:52.568Z,26.25
2017-05-31T03:31:33.420Z,26.28
2017-05-31T03:32:14.245Z,26.2
2017-05-31T03:32:54.976Z,26.28
2017-05-31T03:33:35.796Z,26.21
2017-05-31T03:34:16.521Z,26.29
2017-05-31T03:34:57.366Z,26.2
2017-05-31T03:35:38.130Z,26.23
2017-05-31T03:36:18.903Z,26.2
2017-05-31T03:36:59.700Z,26.2
2017-05-31T03:37:40.488Z,26.21
2017-05-31T03:38:21.301Z,26.23
2017-05-31T03:39:02.049Z,26.23
2017-05-31T03:39:42.808Z,26.28
2017-05-31T03:40:23.638Z,26.26
2017-05-31T03:41:04.433Z,26.32
2017-05-31T03:41:45.214Z,26.26
2017-05-31T03:42:25.982Z,26.23
2017-05-31T03:43:06.773Z,26.23
2017-05-31T03:43:47.549Z,26.23
2017-05-31T03:44:28.384Z,26.25
2017-05-31T03:45:09.210Z,26.29
2017-05-31T03:45:50.024Z,26.26
2017-05-31T03:46:30.828Z,26.2
2017-05-31T03:47:11.523Z,26.28
2017-05-31T03:47:52.294Z,26.29
2017-05-31T03:48:33.164Z,26.23
2017-05-31T03:49:13.916Z,26.23
2017-05-31T03:49:54.797Z,26.17
2017-05-31T03:50:35.543Z,26.23
2017-05-31T03:51:16.321Z,26.17
2017-05-31T03:51:57.099Z,26.17
2017-05-31T03:52:37.896Z,26.23
2017-05-31T03:53:18.739Z,26.18
2017-05-31T03:53:59.465Z,26.15
2017-05-31T03:54:40.224Z,26.18
2017-05-31T03:55:20.988Z,26.29
2017-05-31T03:56:01.694Z,26.18
2017-05-31T03:56:42.467Z,26.2
2017-05-31T03:57:23.303Z,26.2
2017-05-31T03:58:04.106Z,26.32
2017-05-31T03:58:44.852Z,26.17
2017-05-31T03:59:25.619Z,26.15
2017-05-31T04:00:06.399Z,26.12
2017-05-31T04:00:47.198Z,26.17
2017-05-31T04:01:28.025Z,26.15
2017-05-31T04:02:08.740Z,26.13
2017-05-31T04:02:49.520Z,26.2
2017-05-31T04:03:30.295Z,26.17
2017-05-31T04:04:11.135Z,26.2
2017-05-31T04:04:51.930Z,26.21
2017-05-31T04:05:32.713Z,26.18
2017-05-31T04:06:13.533Z,26.15
2017-05-31T04:06:54.366Z,26.23
2017-05-31T04:07:35.215Z,26.15
2017-05-31T04:08:15.958Z,26.23
2017-05-31T04:08:56.732Z,26.17
2017-05-31T04:09:37.480Z,26.13
2017-05-31T04:10:18.205Z,26.25
2017-05-31T04:10:59.003Z,26.23
2017-05-31T04:11:39.828Z,26.25
2017-05-31T04:12:20.619Z,26.2
2017-05-31T04:13:01.391Z,26.15
2017-05-31T04:13:42.150Z,26.15
2017-05-31T04:14:22.913Z,26.1
2017-05-31T04:15:03.666Z,26.13
2017-05-31T04:15:44.460Z,26.17
2017-05-31T04:16:25.215Z,26.12
2017-05-31T04:17:06.049Z,26.1
2017-05-31T04:17:46.820Z,26.2
2017-05-31T04:18:27.620Z,26.23
2017-05-31T04:19:08.412Z,26.21
2017-05-31T04:19:49.237Z,26.15
2017-05-31T04:20:29.990Z,26.12
2017-05-31T04:22:45.485Z,26.15
2017-05-31T04:23:26.249Z,26.21
2017-05-31T04:24:06.998Z,26.13
2017-05-31T04:24:47.745Z,26.32
2017-05-31T04:25:28.541Z,26.23
2017-05-31T04:26:09.320Z,26.17
2017-05-31T04:26:50.092Z,26.25
2017-05-31T04:27:30.883Z,26.18
2017-05-31T04:28:11.674Z,26.17
2017-05-31T04:28:52.524Z,26.17
2017-05-31T04:29:33.319Z,26.28
2017-05-31T04:30:14.139Z,26.17
2017-05-31T04:30:54.985Z,26.15
2017-05-31T04:31:35.799Z,26.18
2017-05-31T04:32:16.509Z,26.17
2017-05-31T04:32:57.361Z,26.2
2017-05-31T04:33:38.049Z,26.15
2017-05-31T04:34:18.888Z,26.23
2017-05-31T04:34:59.635Z,26.18
2017-05-31T04:35:40.358Z,26.21
2017-05-31T04:36:21.053Z,26.25
2017-05-31T04:37:01.835Z,26.21
2017-05-31T04:37:42.644Z,26.21
2017-05-31T04:38:23.408Z,26.3
2017-05-31T04:39:04.169Z,26.23
2017-05-31T04:39:44.960Z,26.18
2017-05-31T04:40:25.684Z,26.26
2017-05-31T04:41:06.461Z,26.21
2017-05-31T04:41:47.241Z,26.26
2017-05-31T04:42:27.980Z,26.25
2017-05-31T04:43:08.768Z,26.23
2017-05-31T04:43:49.633Z,26.25
2017-05-31T04:44:30.493Z,26.29
2017-05-31T04:45:11.295Z,26.25
2017-05-31T04:45:52.117Z,26.21
2017-05-31T04:46:32.859Z,26.3
2017-05-31T04:47:13.659Z,26.25
2017-05-31T04:47:54.436Z,26.23
2017-05-31T04:48:35.183Z,26.32
2017-05-31T04:49:15.924Z,26.26
2017-05-31T04:49:56.744Z,26.18
2017-05-31T04:50:37.504Z,26.2
2017-05-31T04:51:18.316Z,26.23
2017-05-31T04:52:13.965Z,26.26
2017-05-31T04:52:54.758Z,26.3
2017-05-31T04:53:35.553Z,26.33
2017-05-31T04:54:16.308Z,26.3
2017-05-31T04:54:57.104Z,26.3
2017-05-31T04:55:37.845Z,26.29
2017-05-31T04:56:18.571Z,26.3
2017-05-31T04:56:59.385Z,26.43
2017-05-31T04:57:40.160Z,26.37
2017-05-31T04:58:20.897Z,26.43
2017-05-31T04:59:01.644Z,26.48
2017-05-31T04:59:42.474Z,26.43
2017-05-31T05:00:23.215Z,26.54
2017-05-31T05:01:03.947Z,26.54
2017-05-31T05:01:44.746Z,26.55
2017-05-31T05:02:25.547Z,26.62
2017-05-31T05:03:06.369Z,26.65
2017-05-31T05:03:47.142Z,26.67
2017-05-31T05:04:27.891Z,26.67
2017-05-31T05:05:08.637Z,26.77
2017-05-31T05:05:49.426Z,26.87
2017-05-31T05:06:30.215Z,26.81
2017-05-31T05:07:10.935Z,26.92
2017-05-31T05:07:51.692Z,26.97
2017-05-31T05:08:32.448Z,27.12
2017-05-31T05:09:13.245Z,27.22
2017-05-31T05:09:54.047Z,27.36
2017-05-31T05:10:34.844Z,27.6
2017-05-31T05:11:15.589Z,27.77
2017-05-31T05:11:56.349Z,28
2017-05-31T05:12:37.152Z,28.09
2017-05-31T05:13:17.914Z,28.24
2017-05-31T05:13:58.676Z,28.36
2017-05-31T05:14:39.473Z,28.43
2017-05-31T05:15:20.261Z,28.61
2017-05-31T05:16:01.095Z,28.77
2017-05-31T05:16:41.803Z,28.92
2017-05-31T05:17:22.595Z,29.09
2017-05-31T05:18:03.419Z,29.21
2017-05-31T05:18:44.173Z,29.24
2017-05-31T05:19:24.916Z,29.34
2017-05-31T05:20:05.706Z,29.43
2017-05-31T05:20:46.473Z,29.57
2017-05-31T05:21:27.300Z,29.71
2017-05-31T05:23:42.329Z,29.9
2017-05-31T05:24:23.105Z,30.02
2017-05-31T05:25:03.832Z,30.1
2017-05-31T05:25:44.663Z,30.17
2017-05-31T05:26:25.430Z,30.26
2017-05-31T05:27:06.240Z,30.32
2017-05-31T05:27:46.969Z,30.42
2017-05-31T05:28:27.740Z,30.47
2017-05-31T05:29:08.548Z,30.32
2017-05-31T05:29:49.385Z,30.57
2017-05-31T05:30:30.175Z,30.72
2017-05-31T05:31:10.891Z,30.77
2017-05-31T05:31:51.657Z,30.76
2017-05-31T05:32:32.484Z,30.86
2017-05-31T05:33:13.265Z,30.98
2017-05-31T05:33:54.052Z,31.02
2017-05-31T05:34:34.818Z,30.97
2017-05-31T05:35:15.591Z,31.16
2017-05-31T05:35:56.370Z,31.12
2017-05-31T05:36:37.220Z,31.23
2017-05-31T05:37:17.992Z,31.2
2017-05-31T05:37:58.755Z,31.2
2017-05-31T05:38:39.517Z,31.32
2017-05-31T05:39:20.296Z,31.28
2017-05-31T05:40:01.074Z,31.32
2017-05-31T05:40:41.845Z,31.38
2017-05-31T05:41:22.609Z,31.54
2017-05-31T05:42:03.420Z,31.58
2017-05-31T05:42:44.205Z,31.58
2017-05-31T05:43:25.022Z,31.68
2017-05-31T05:44:05.768Z,31.65
2017-05-31T05:44:46.662Z,31.73
2017-05-31T05:45:27.456Z,31.63
2017-05-31T05:46:08.221Z,31.65
2017-05-31T05:46:49.064Z,31.44
2017-05-31T05:47:29.799Z,31.13
2017-05-31T05:48:10.611Z,30.82
2017-05-31T05:48:51.449Z,30.38
2017-05-31T05:49:32.265Z,29.98
2017-05-31T05:50:13.091Z,29.7
2017-05-31T05:50:53.928Z,29.42
2017-05-31T05:51:34.652Z,29.24
2017-05-31T05:52:15.500Z,29.23
2017-05-31T05:52:56.240Z,29.09
2017-05-31T05:53:37.008Z,29
2017-05-31T05:54:17.752Z,28.98
2017-05-31T05:54:58.563Z,29.08
2017-05-31T05:55:39.306Z,28.96
2017-05-31T05:56:20.117Z,28.96
2017-05-31T05:57:00.907Z,28.95
2017-05-31T05:57:41.751Z,29
2017-05-31T05:58:22.594Z,28.92
2017-05-31T05:59:03.378Z,29.04
2017-05-31T05:59:44.179Z,29.02
2017-05-31T06:00:24.979Z,28.98
2017-05-31T06:01:05.803Z,29.06
2017-05-31T06:01:46.623Z,29.08
2017-05-31T06:02:27.432Z,29.02
2017-05-31T06:03:08.298Z,29.05
2017-05-31T06:03:49.097Z,29.14
2017-05-31T06:04:29.860Z,29.16
2017-05-31T06:05:10.657Z,29.08
2017-05-31T06:05:51.540Z,29.11
2017-05-31T06:06:32.260Z,29.11
2017-05-31T06:07:13.004Z,29.19
2017-05-31T06:07:53.795Z,29.09
2017-05-31T06:08:34.553Z,29.24
2017-05-31T06:09:15.355Z,29.19
2017-05-31T06:09:56.160Z,29.19
2017-05-31T06:10:36.899Z,29.19
2017-05-31T06:11:17.663Z,29.23
2017-05-31T06:11:58.494Z,29.16
2017-05-31T06:12:39.276Z,29.21
2017-05-31T06:13:20.119Z,29.3
2017-05-31T06:14:00.906Z,29.27
2017-05-31T06:14:41.696Z,29.39
2017-05-31T06:15:22.475Z,29.39
2017-05-31T06:16:03.260Z,29.33
2017-05-31T06:16:44.097Z,29.48
2017-05-31T06:17:24.821Z,29.48
2017-05-31T06:18:05.649Z,29.46
2017-05-31T06:18:46.500Z,29.45
2017-05-31T06:19:27.269Z,29.49
2017-05-31T06:20:08.114Z,29.46
2017-05-31T06:20:48.918Z,29.51
2017-05-31T06:21:29.720Z,29.53
2017-05-31T06:22:10.507Z,29.53
2017-05-31T06:22:51.295Z,29.57
2017-05-31T06:23:32.099Z,29.6
2017-05-31T06:24:12.846Z,29.64
2017-05-31T06:24:53.578Z,29.61
2017-05-31T06:25:34.385Z,29.64
2017-05-31T06:26:15.181Z,29.64
2017-05-31T06:26:55.992Z,29.65
2017-05-31T06:27:36.748Z,29.78
2017-05-31T06:28:17.505Z,29.78
2017-05-31T06:28:58.290Z,29.71
2017-05-31T06:29:38.989Z,29.8
2017-05-31T06:30:19.777Z,29.85
2017-05-31T06:31:00.557Z,29.8
2017-05-31T06:31:41.363Z,29.89
2017-05-31T06:32:22.144Z,29.92
2017-05-31T06:33:02.923Z,29.89
2017-05-31T06:33:43.750Z,29.86
2017-05-31T06:34:24.485Z,29.89
2017-05-31T06:35:05.347Z,29.9
2017-05-31T06:35:46.194Z,29.97
2017-05-31T06:36:26.992Z,30
2017-05-31T06:37:07.774Z,30
2017-05-31T06:37:48.534Z,30
2017-05-31T06:38:29.318Z,29.98
2017-05-31T06:39:10.153Z,29.98
2017-05-31T06:39:50.986Z,30.01
2017-05-31T06:40:31.771Z,30.01
2017-05-31T06:41:12.562Z,30.1
2017-05-31T06:41:53.339Z,30.02
2017-05-31T06:42:34.159Z,30.13
2017-05-31T06:43:14.943Z,30.04
2017-05-31T06:43:55.674Z,30.17
2017-05-31T06:44:36.464Z,30.17
2017-05-31T06:45:17.278Z,30.22
2017-05-31T06:45:58.080Z,30.23
2017-05-31T06:46:38.861Z,30.22
2017-05-31T06:47:19.620Z,30.17
2017-05-31T06:48:00.458Z,30.34
2017-05-31T06:48:41.261Z,30.35
2017-05-31T06:49:22.017Z,30.38
2017-05-31T06:50:02.815Z,30.35
2017-05-31T06:50:43.630Z,30.35
2017-05-31T06:51:24.410Z,30.35
2017-05-31T06:52:05.199Z,30.42
2017-05-31T06:52:45.970Z,30.51
2017-05-31T06:53:26.696Z,30.38
2017-05-31T06:54:07.480Z,30.38
2017-05-31T06:54:48.218Z,30.51
2017-05-31T06:55:28.997Z,30.37
2017-05-31T06:56:09.746Z,30.46
2017-05-31T06:56:50.479Z,30.6
2017-05-31T06:57:31.322Z,30.54
2017-05-31T06:58:12.071Z,30.6
2017-05-31T06:58:52.892Z,30.6
2017-05-31T06:59:33.685Z,30.62
2017-05-31T07:00:14.493Z,30.62
2017-05-31T07:00:55.274Z,30.72
2017-05-31T07:01:36.054Z,30.7
2017-05-31T07:02:16.763Z,30.73
2017-05-31T07:02:57.523Z,30.69
2017-05-31T07:03:38.255Z,30.76
2017-05-31T07:04:19.054Z,30.82
2017-05-31T07:04:59.840Z,30.75
2017-05-31T07:05:40.597Z,30.79
2017-05-31T07:06:21.345Z,30.82
2017-05-31T07:07:02.116Z,30.86
2017-05-31T07:07:42.914Z,30.89
2017-05-31T07:08:23.676Z,30.95
2017-05-31T07:09:04.480Z,30.91
2017-05-31T07:09:45.160Z,30.88
2017-05-31T07:10:25.924Z,30.91
2017-05-31T07:11:06.634Z,30.99
2017-05-31T07:11:47.351Z,31.01
2017-05-31T07:12:28.096Z,30.99
2017-05-31T07:13:08.873Z,31.09
2017-05-31T07:13:49.607Z,31.07
2017-05-31T07:14:30.426Z,31.1
2017-05-31T07:15:11.240Z,31.12
2017-05-31T07:15:52.033Z,31.1
2017-05-31T07:16:32.826Z,31.14
2017-05-31T07:17:13.540Z,31.13
2017-05-31T07:17:54.315Z,31.16
2017-05-31T07:18:35.185Z,31.14
2017-05-31T07:19:15.992Z,31.14
2017-05-31T07:19:56.798Z,31.21
2017-05-31T07:20:37.482Z,31.2
2017-05-31T07:21:18.203Z,31.31
2017-05-31T07:21:59.007Z,31.21
2017-05-31T07:22:41.040Z,31.19
2017-05-31T07:23:20.551Z,31.23
2017-05-31T07:24:01.327Z,31.21
2017-05-31T07:24:42.089Z,31.26
2017-05-31T07:25:22.863Z,31.35
2017-05-31T07:26:03.592Z,31.32
2017-05-31T07:26:44.423Z,31.39
2017-05-31T07:27:25.232Z,31.36
2017-05-31T07:28:05.960Z,31.39
2017-05-31T07:28:46.665Z,31.44
2017-05-31T07:29:27.396Z,31.47
2017-05-31T07:30:08.174Z,31.41
2017-05-31T07:30:48.929Z,31.46
2017-05-31T07:31:29.652Z,31.41
2017-05-31T07:32:10.421Z,31.51
2017-05-31T07:32:51.190Z,31.41
2017-05-31T07:33:31.931Z,31.41
2017-05-31T07:34:12.711Z,31.5
2017-05-31T07:34:53.426Z,31.47
2017-05-31T07:35:34.170Z,31.46
2017-05-31T07:36:14.921Z,31.51
2017-05-31T07:36:55.751Z,31.57
2017-05-31T07:37:36.553Z,31.62
2017-05-31T07:38:17.334Z,31.62
2017-05-31T07:38:58.080Z,31.66
2017-05-31T07:39:38.894Z,31.54
2017-05-31T07:40:19.703Z,31.58
2017-05-31T07:41:00.476Z,31.66
2017-05-31T07:41:41.197Z,31.57
2017-05-31T07:42:21.973Z,31.65
2017-05-31T07:43:02.767Z,31.61
2017-05-31T07:43:43.550Z,31.61
2017-05-31T07:44:24.326Z,31.58
2017-05-31T07:45:05.049Z,31.63
2017-05-31T07:45:45.794Z,31.7
2017-05-31T07:46:26.601Z,31.69
2017-05-31T07:47:07.369Z,31.78
2017-05-31T07:47:48.136Z,31.8
2017-05-31T07:48:28.896Z,31.8
2017-05-31T07:49:09.646Z,31.72
2017-05-31T07:49:50.390Z,31.75
2017-05-31T07:50:31.179Z,31.78
2017-05-31T07:51:12.005Z,31.89
2017-05-31T07:51:53.273Z,31.86
2017-05-31T07:52:34.061Z,31.92
2017-05-31T07:53:14.881Z,31.99
2017-05-31T07:53:55.663Z,31.92
2017-05-31T07:54:36.734Z,31.92
2017-05-31T07:55:17.710Z,31.91
2017-05-31T07:55:58.498Z,31.89
2017-05-31T07:56:39.248Z,31.91
2017-05-31T07:57:20.019Z,31.99
2017-05-31T07:58:00.750Z,31.96
2017-05-31T07:58:41.548Z,31.96
2017-05-31T07:59:22.390Z,32
2017-05-31T08:00:03.223Z,31.96
2017-05-31T08:00:43.967Z,31.95
2017-05-31T08:01:24.754Z,31.86
2017-05-31T08:02:05.592Z,31.95
2017-05-31T08:02:46.281Z,31.91
2017-05-31T08:03:26.995Z,31.96
2017-05-31T08:04:07.769Z,31.93
2017-05-31T08:04:48.590Z,31.95
2017-05-31T08:05:29.389Z,31.95
2017-05-31T08:06:10.240Z,31.99
2017-05-31T08:06:50.971Z,31.96
2017-05-31T08:07:31.819Z,32.03
2017-05-31T08:08:12.595Z,32.03
2017-05-31T08:08:53.429Z,31.96
2017-05-31T08:09:34.152Z,31.99
2017-05-31T08:10:14.975Z,31.93
2017-05-31T08:10:55.719Z,32.04
2017-05-31T08:11:36.455Z,32.03
2017-05-31T08:12:17.217Z,32.03
2017-05-31T08:12:57.978Z,31.99
2017-05-31T08:13:38.761Z,31.95
2017-05-31T08:14:19.471Z,31.95
2017-05-31T08:15:00.317Z,31.99
2017-05-31T08:15:41.122Z,32.07
2017-05-31T08:16:21.925Z,32.11
2017-05-31T08:17:02.691Z,32.07
2017-05-31T08:17:43.469Z,32.13
2017-05-31T08:18:24.265Z,32.21
2017-05-31T08:19:04.984Z,32.15
2017-05-31T08:19:45.820Z,32.11
2017-05-31T08:20:26.526Z,32.07
2017-05-31T08:21:07.275Z,32.07
2017-05-31T08:21:48.077Z,32.1
2017-05-31T08:22:28.806Z,32.07
2017-05-31T08:23:09.575Z,32.14
2017-05-31T08:23:50.423Z,32.07
2017-05-31T08:24:31.187Z,32.08
2017-05-31T08:25:12.010Z,32.08
2017-05-31T08:25:52.797Z,32.26
2017-05-31T08:26:33.536Z,32.26
2017-05-31T08:27:14.286Z,32.26
2017-05-31T08:27:55.039Z,32.25
2017-05-31T08:28:35.769Z,32.33
2017-05-31T08:29:16.592Z,32.35
2017-05-31T08:29:57.356Z,32.28
2017-05-31T08:30:38.111Z,32.3
2017-05-31T08:31:18.878Z,32.33
2017-05-31T08:31:59.725Z,32.26
2017-05-31T08:32:40.451Z,32.3
2017-05-31T08:33:21.218Z,32.3
2017-05-31T08:34:01.948Z,32.32
2017-05-31T08:34:42.828Z,32.33
2017-05-31T08:35:23.657Z,32.29
2017-05-31T08:36:04.409Z,32.37
2017-05-31T08:36:45.219Z,32.28
2017-05-31T08:37:25.926Z,32.18
2017-05-31T08:38:06.654Z,32.18
2017-05-31T08:38:47.443Z,32.23
2017-05-31T08:39:28.231Z,32.28
2017-05-31T08:40:09.007Z,32.26
2017-05-31T08:40:49.859Z,32.38
2017-05-31T08:41:30.519Z,32.3
2017-05-31T08:42:11.226Z,32.26
2017-05-31T08:42:52.018Z,32.37
2017-05-31T08:43:32.779Z,32.45
2017-05-31T08:44:13.536Z,32.43
2017-05-31T08:44:54.336Z,32.5
2017-05-31T08:45:35.121Z,32.51
2017-05-31T08:46:15.857Z,32.56
2017-05-31T08:46:56.554Z,32.5
2017-05-31T08:47:37.409Z,32.41
2017-05-31T08:48:18.127Z,32.43
2017-05-31T08:48:58.930Z,32.44
2017-05-31T08:49:39.855Z,32.43
2017-05-31T08:50:20.690Z,32.48
2017-05-31T08:51:01.393Z,32.41